createdAt,value
2023-03-11T00:01:26.689Z,99420.91
2023-03-11T00:06:28.062Z,99432.75
2023-03-11T00:11:29.423Z,99446.28
2023-03-11T00:16:30.956Z,99456.06
2023-03-11T00:21:32.367Z,99444.38
2023-03-11T00:26:33.854Z,99453.41
2023-03-11T00:31:35.262Z,99454.84
2023-03-11T00:36:36.630Z,99465.38
2023-03-11T00:41:37.995Z,99472.31
2023-03-11T00:46:39.365Z,99476.09
2023-03-11T00:51:40.756Z,99492.06
2023-03-11T00:56:42.208Z,99484.09
2023-03-11T01:01:43.702Z,99478.91
2023-03-11T01:06:45.913Z,99474.22
2023-03-11T01:11:47.597Z,99462.91
2023-03-11T01:16:48.991Z,99461.19
2023-03-11T01:21:50.416Z,99474.09
2023-03-11T01:26:51.758Z,99471.19
2023-03-11T01:31:53.371Z,99472.47
2023-03-11T01:36:54.807Z,99480.50
2023-03-11T01:41:56.391Z,99489.06
2023-03-11T01:46:57.796Z,99506.91
2023-03-11T01:52:02.548Z,99517.06
2023-03-11T01:57:09.519Z,99510.38
2023-03-11T02:02:22.694Z,99510.13
2023-03-11T02:07:24.246Z,99514.81
2023-03-11T02:12:28.616Z,99515.44
2023-03-11T02:17:30.586Z,99512.22
2023-03-11T02:22:32.253Z,99527.63
2023-03-11T02:27:35.969Z,99532.56
2023-03-11T02:32:37.870Z,99532.69
2023-03-11T02:37:44.087Z,99542.69
2023-03-11T02:42:45.588Z,99549.09
2023-03-11T02:47:46.967Z,99544.69
2023-03-11T02:52:49.777Z,99553.00
2023-03-11T02:57:51.168Z,99558.66
2023-03-11T03:02:52.568Z,99569.47
2023-03-11T03:07:54.027Z,99568.94
2023-03-11T03:12:55.369Z,99568.72
2023-03-11T03:17:56.760Z,99566.03
2023-03-11T03:22:58.239Z,99572.50
2023-03-11T03:27:59.744Z,99565.59
2023-03-11T03:33:01.122Z,99579.75
2023-03-11T03:38:02.532Z,99574.81
2023-03-11T03:43:04.178Z,99584.59
2023-03-11T03:48:05.883Z,99577.88
2023-03-11T03:53:07.291Z,99588.56
2023-03-11T03:58:08.638Z,99587.31
2023-03-11T04:03:10.064Z,99597.88
2023-03-11T04:08:11.405Z,99603.19
2023-03-11T04:13:12.754Z,99614.03
2023-03-11T04:18:14.369Z,99615.16
2023-03-11T04:23:16.099Z,99614.63
2023-03-11T04:28:17.433Z,99613.78
2023-03-11T04:33:19.089Z,99619.50
2023-03-11T04:38:20.437Z,99619.13
2023-03-11T04:43:21.836Z,99615.25
2023-03-11T04:48:23.196Z,99612.72
2023-03-11T04:53:24.553Z,99630.19
2023-03-11T04:58:26.022Z,99627.81
2023-03-11T05:03:27.438Z,99641.06
2023-03-11T05:08:28.782Z,99641.50
2023-03-11T05:13:30.196Z,99648.81
2023-03-11T05:18:31.630Z,99648.81
2023-03-11T05:23:33.009Z,99657.56
2023-03-11T05:28:34.418Z,99656.53
2023-03-11T05:33:35.882Z,99670.09
2023-03-11T05:38:37.416Z,99682.31
2023-03-11T05:43:38.792Z,99662.53
2023-03-11T05:48:40.181Z,99664.22
2023-03-11T05:53:45.737Z,99667.69
2023-03-11T05:58:47.112Z,99680.66
2023-03-11T06:03:48.545Z,99690.19
2023-03-11T06:08:50.075Z,99690.81
2023-03-11T06:13:55.432Z,99700.13
2023-03-11T06:18:56.826Z,99708.69
2023-03-11T06:23:58.307Z,99724.72
2023-03-11T06:28:59.681Z,99731.31
2023-03-11T06:34:00.965Z,99724.53
2023-03-11T06:39:02.434Z,99733.75
2023-03-11T06:44:03.809Z,99742.47
2023-03-11T06:49:05.166Z,99753.84
2023-03-11T06:54:06.665Z,99754.56
2023-03-11T06:59:08.068Z,99768.66
2023-03-11T07:04:10.489Z,99769.00
2023-03-11T07:09:11.926Z,99774.31
2023-03-11T07:14:13.270Z,99800.69
2023-03-11T07:19:14.875Z,99803.97
2023-03-11T07:24:16.333Z,99810.66
2023-03-11T07:29:17.742Z,99828.66
2023-03-11T07:34:19.094Z,99845.59
2023-03-11T07:39:20.771Z,99836.06
2023-03-11T07:44:22.529Z,99842.84
2023-03-11T07:49:23.956Z,99849.06
2023-03-11T07:54:25.381Z,99860.22
2023-03-11T07:59:26.890Z,99860.75
2023-03-11T08:04:28.264Z,99870.88
2023-03-11T08:09:29.594Z,99889.25
2023-03-11T08:14:30.978Z,99884.63
2023-03-11T08:19:32.392Z,99879.56
2023-03-11T08:24:33.780Z,99875.00
2023-03-11T08:29:35.325Z,99881.84
2023-03-11T08:34:37.256Z,99899.34
2023-03-11T08:39:38.866Z,99903.03
2023-03-11T08:44:41.041Z,99904.03
2023-03-11T08:49:42.591Z,99900.56
2023-03-11T08:54:43.905Z,99898.03
2023-03-11T08:59:45.255Z,99892.72
2023-03-11T09:04:46.621Z,99892.53
2023-03-11T09:09:48.028Z,99894.94
2023-03-11T09:14:49.448Z,99898.97
2023-03-11T09:19:50.832Z,99903.38
2023-03-11T09:24:52.236Z,99904.16
2023-03-11T09:29:53.617Z,99909.00
2023-03-11T09:34:55.028Z,99902.09
2023-03-11T09:39:56.399Z,99905.28
2023-03-11T09:45:02.525Z,99905.22
2023-03-11T09:50:13.383Z,99898.28
2023-03-11T09:55:26.874Z,99907.69
2023-03-11T10:00:28.299Z,99923.25
2023-03-11T10:05:29.934Z,99934.59
2023-03-11T10:10:34.817Z,99926.41
2023-03-11T10:15:38.384Z,99930.25
2023-03-11T10:20:55.631Z,99925.78
2023-03-11T10:26:08.572Z,99929.13
2023-03-11T10:31:10.126Z,99936.16
2023-03-11T10:36:14.280Z,99937.38
2023-03-11T10:41:38.881Z,99939.28
2023-03-11T10:46:40.335Z,99943.38
2023-03-11T10:51:45.170Z,99948.53
2023-03-11T10:56:49.913Z,99957.16
2023-03-11T11:01:56.108Z,99968.75
2023-03-11T11:06:57.928Z,99960.78
2023-03-11T11:12:02.020Z,99955.13
2023-03-11T11:17:03.423Z,99959.19
2023-03-11T11:22:05.074Z,99957.25
2023-03-11T11:27:16.167Z,99960.66
2023-03-11T11:32:26.951Z,99961.50
2023-03-11T11:37:30.256Z,99946.88
2023-03-11T11:42:31.756Z,99949.56
2023-03-11T11:47:34.277Z,99940.97
2023-03-11T11:52:43.123Z,99942.13
2023-03-11T11:57:46.512Z,99930.63
2023-03-11T12:02:47.908Z,99928.31
2023-03-11T12:07:57.295Z,99941.75
2023-03-11T12:13:01.692Z,99933.53
2023-03-11T12:18:06.128Z,99936.75
2023-03-11T12:23:24.791Z,99939.34
2023-03-11T12:28:35.394Z,99944.59
2023-03-11T12:33:42.971Z,99955.38
2023-03-11T12:38:47.071Z,99953.34
2023-03-11T12:43:48.387Z,99936.19
2023-03-11T12:49:05.322Z,99931.59
2023-03-11T12:54:28.643Z,99941.44
2023-03-11T12:59:32.711Z,99939.13
2023-03-11T13:04:37.086Z,99943.91
2023-03-11T13:09:38.762Z,99948.09
2023-03-11T13:14:40.185Z,99939.66
2023-03-11T13:19:49.196Z,99936.81
2023-03-11T13:24:50.912Z,99943.81
2023-03-11T13:30:00.159Z,99939.50
2023-03-11T13:35:20.217Z,99938.94
2023-03-11T13:40:41.345Z,99941.28
2023-03-11T13:45:47.373Z,99953.59
2023-03-11T13:50:55.092Z,99953.28
2023-03-11T13:55:56.696Z,99949.69
2023-03-11T14:00:59.501Z,99953.50
2023-03-11T14:06:04.149Z,99945.06
2023-03-11T14:11:08.491Z,99945.56
2023-03-11T14:16:28.845Z,99941.81
2023-03-11T14:21:30.740Z,99946.03
2023-03-11T14:26:34.116Z,99936.31
2023-03-11T14:31:36.834Z,99948.09
2023-03-11T14:36:41.239Z,99957.53
2023-03-11T14:41:42.578Z,99957.19
2023-03-11T14:46:45.304Z,99957.13
2023-03-11T14:51:49.010Z,99946.13
2023-03-11T14:56:54.354Z,99937.41
2023-03-11T15:01:57.911Z,99937.94
2023-03-11T15:07:00.013Z,99953.69
2023-03-11T15:12:02.593Z,99956.91
2023-03-11T15:17:32.973Z,99960.22
2023-03-11T15:22:39.290Z,99955.97
2023-03-11T15:27:40.759Z,99963.47
2023-03-11T15:32:45.943Z,99963.09
2023-03-11T15:37:48.291Z,99962.94
2023-03-11T15:43:09.717Z,99961.13
2023-03-11T15:48:12.474Z,99961.03
2023-03-11T15:53:13.856Z,99958.91
2023-03-11T15:58:16.186Z,99979.69
2023-03-11T16:03:18.004Z,99974.66
2023-03-11T16:08:19.616Z,99984.72
2023-03-11T16:13:20.982Z,99989.16
2023-03-11T16:18:22.296Z,99993.69
2023-03-11T16:23:25.364Z,99987.19
2023-03-11T16:28:26.941Z,99992.13
2023-03-11T16:33:28.285Z,99986.16
2023-03-11T16:38:30.021Z,99987.09
2023-03-11T16:43:31.636Z,99995.72
2023-03-11T16:48:33.324Z,99991.13
2023-03-11T16:53:34.784Z,99991.03
2023-03-11T16:58:36.151Z,99991.88
2023-03-11T17:03:42.544Z,99995.34
2023-03-11T17:08:44.414Z,99994.72
2023-03-11T17:13:45.915Z,100010.63
2023-03-11T17:18:47.242Z,100009.47
2023-03-11T17:23:48.608Z,100015.81
2023-03-11T17:28:50.017Z,100017.47
2023-03-11T17:33:51.422Z,100026.03
2023-03-11T17:38:53.821Z,100028.91
2023-03-11T17:43:55.205Z,100046.97
2023-03-11T17:48:56.587Z,100042.84
2023-03-11T17:53:58.062Z,100062.72
2023-03-11T17:58:59.577Z,100067.28
2023-03-11T18:04:00.961Z,100064.22
2023-03-11T18:09:02.382Z,100069.81
2023-03-11T18:14:03.760Z,100067.84
2023-03-11T18:19:05.594Z,100071.81
2023-03-11T18:24:07.106Z,100081.44
2023-03-11T18:29:08.480Z,100080.47
2023-03-11T18:34:09.972Z,100085.06
2023-03-11T18:39:11.494Z,100086.00
2023-03-11T18:44:12.985Z,100083.22
2023-03-11T18:49:14.365Z,100083.25
2023-03-11T18:54:15.702Z,100088.94
2023-03-11T18:59:17.187Z,100089.31
2023-03-11T19:04:18.744Z,100086.88
2023-03-11T19:09:20.172Z,100086.28
2023-03-11T19:14:21.550Z,100104.91
2023-03-11T19:19:23.020Z,100110.13
2023-03-11T19:24:24.363Z,100111.78
2023-03-11T19:29:25.716Z,100118.94
2023-03-11T19:34:27.169Z,100120.44
2023-03-11T19:39:28.545Z,100114.91
2023-03-11T19:44:30.014Z,100121.88
2023-03-11T19:49:31.470Z,100136.38
2023-03-11T19:54:32.881Z,100136.22
2023-03-11T19:59:34.504Z,100128.50
2023-03-11T20:04:35.865Z,100133.94
2023-03-11T20:09:37.320Z,100146.47
2023-03-11T20:14:38.736Z,100154.06
2023-03-11T20:19:40.207Z,100163.47
2023-03-11T20:24:41.718Z,100160.41
2023-03-11T20:29:43.138Z,100170.75
2023-03-11T20:34:44.601Z,100164.34
2023-03-11T20:39:46.033Z,100179.41
2023-03-11T20:44:51.113Z,100173.25
2023-03-11T20:49:52.502Z,100170.19
2023-03-11T20:54:53.916Z,100179.38
2023-03-11T20:59:55.330Z,100164.16
2023-03-11T21:04:56.706Z,100161.16
2023-03-11T21:09:58.156Z,100176.03
2023-03-11T21:14:59.803Z,100171.38
2023-03-11T21:20:01.336Z,100177.56
2023-03-11T21:25:02.939Z,100172.53
2023-03-11T21:30:04.568Z,100171.38
2023-03-11T21:35:05.984Z,100168.53
2023-03-11T21:40:07.745Z,100171.97
2023-03-11T21:45:09.549Z,100176.34
2023-03-11T21:50:11.525Z,100177.66
2023-03-11T21:55:13.145Z,100184.06
2023-03-11T22:00:14.786Z,100177.38
2023-03-11T22:05:16.448Z,100177.75
2023-03-11T22:10:18.118Z,100173.09
2023-03-11T22:15:19.587Z,100178.88
2023-03-11T22:20:21.042Z,100171.09
2023-03-11T22:25:22.543Z,100169.03
2023-03-11T22:30:23.987Z,100172.94
2023-03-11T22:35:25.400Z,100182.22
2023-03-11T22:40:29.312Z,100179.28
2023-03-11T22:45:30.728Z,100180.19
2023-03-11T22:50:32.227Z,100188.75
2023-03-11T22:55:33.700Z,100180.81
2023-03-11T23:00:35.583Z,100179.41
2023-03-11T23:05:37.258Z,100182.00
2023-03-11T23:10:42.504Z,100182.13
2023-03-11T23:15:44.572Z,100168.72
2023-03-11T23:20:45.917Z,100168.31
2023-03-11T23:25:47.267Z,100165.00
2023-03-11T23:30:48.698Z,100170.00
2023-03-11T23:35:50.075Z,100173.28
2023-03-11T23:40:51.510Z,100175.50
2023-03-11T23:45:53.038Z,100178.75
2023-03-11T23:50:54.418Z,100182.97
2023-03-11T23:55:55.779Z,100186.72
